createdAt,value
2023-02-27T00:00:37.834Z,101378.91
2023-02-27T00:03:05.580Z,101407.66
2023-02-27T00:05:34.986Z,101405.00
2023-02-27T00:08:02.883Z,101420.66
2023-02-27T00:10:30.687Z,101425.88
2023-02-27T00:13:02.980Z,101439.81
2023-02-27T00:15:32.200Z,101434.50
2023-02-27T00:18:00.501Z,101457.19
2023-02-27T00:20:28.795Z,101467.66
2023-02-27T00:22:56.466Z,101492.13
2023-02-27T00:25:24.232Z,101493.91
2023-02-27T00:27:53.077Z,101493.94
2023-02-27T00:30:22.383Z,101479.84
2023-02-27T00:32:50.165Z,101489.47
2023-02-27T00:35:18.087Z,101503.53
2023-02-27T00:37:45.914Z,101506.22
2023-02-27T00:40:14.577Z,101492.22
2023-02-27T00:42:42.668Z,101487.09
2023-02-27T00:45:11.120Z,101460.84
2023-02-27T00:47:40.419Z,101460.81
2023-02-27T00:50:08.900Z,101453.84
2023-02-27T00:52:36.639Z,101432.84
2023-02-27T00:55:04.904Z,101413.50
2023-02-27T00:57:32.827Z,101404.72
2023-02-27T01:00:00.847Z,101406.41
2023-02-27T01:02:28.626Z,101429.09
2023-02-27T01:04:57.837Z,101426.41
2023-02-27T01:07:25.628Z,101471.81
2023-02-27T01:09:53.448Z,101475.34
2023-02-27T01:12:21.209Z,101451.69
2023-02-27T01:14:49.461Z,101441.97
2023-02-27T01:17:17.189Z,101450.69
2023-02-27T01:19:45.033Z,101474.31
2023-02-27T01:22:14.284Z,101477.78
2023-02-27T01:24:42.220Z,101472.53
2023-02-27T01:27:10.398Z,101447.97
2023-02-27T01:29:38.283Z,101447.91
2023-02-27T01:32:06.184Z,101431.16
2023-02-27T01:34:34.421Z,101437.16
2023-02-27T01:37:02.282Z,101486.94
2023-02-27T01:39:32.843Z,101476.44
2023-02-27T01:42:00.942Z,101494.69
2023-02-27T01:44:30.083Z,101477.13
2023-02-27T01:46:58.646Z,101478.75
2023-02-27T01:49:30.796Z,101498.78
2023-02-27T01:52:03.143Z,101515.31
2023-02-27T01:54:35.307Z,101527.44
2023-02-27T01:57:06.509Z,101514.19
2023-02-27T01:59:36.134Z,101516.63
2023-02-27T02:02:05.873Z,101531.31
2023-02-27T02:04:36.851Z,101571.34
2023-02-27T02:07:09.210Z,101600.94
2023-02-27T02:09:43.169Z,101605.22
2023-02-27T02:12:14.764Z,101618.28
2023-02-27T02:14:42.485Z,101622.53
2023-02-27T02:17:16.258Z,101636.44
2023-02-27T02:20:01.174Z,101638.16
2023-02-27T02:23:25.611Z,101659.88
2023-02-27T02:26:33.552Z,101686.09
2023-02-27T02:29:42.190Z,101707.00
2023-02-27T02:32:49.144Z,101705.22
2023-02-27T02:35:38.002Z,101743.63
2023-02-27T02:38:44.237Z,101757.56
2023-02-27T02:41:20.095Z,101759.41
2023-02-27T02:43:59.452Z,101782.09
2023-02-27T02:46:34.158Z,101792.56
2023-02-27T02:49:10.280Z,101793.44
2023-02-27T02:51:43.016Z,101800.41
2023-02-27T02:54:15.549Z,101780.16
2023-02-27T02:56:51.178Z,101768.72
2023-02-27T02:59:26.486Z,101767.72
2023-02-27T03:02:01.958Z,101767.69
2023-02-27T03:04:35.855Z,101778.97
2023-02-27T03:07:08.251Z,101788.56
2023-02-27T03:09:41.215Z,101792.91
2023-02-27T03:12:12.227Z,101798.09
2023-02-27T03:14:47.318Z,101817.28
2023-02-27T03:17:25.383Z,101825.13
2023-02-27T03:19:58.490Z,101826.88
2023-02-27T03:22:31.950Z,101825.94
2023-02-27T03:25:02.339Z,101841.69
2023-02-27T03:27:33.966Z,101841.63
2023-02-27T03:30:06.324Z,101876.63
2023-02-27T03:32:42.485Z,101867.91
2023-02-27T03:35:12.221Z,101892.41
2023-02-27T03:37:49.538Z,101873.13
2023-02-27T03:40:27.986Z,101889.75
2023-02-27T03:43:05.180Z,101871.28
2023-02-27T03:45:37.945Z,101867.63
2023-02-27T03:48:09.032Z,101897.34
2023-02-27T03:50:38.136Z,101907.81
2023-02-27T03:53:10.436Z,101875.22
2023-02-27T03:55:42.248Z,101886.38
2023-02-27T03:58:11.730Z,101893.16
2023-02-27T04:00:39.893Z,101891.28
2023-02-27T04:03:08.367Z,101890.25
2023-02-27T04:05:37.224Z,101915.50
2023-02-27T04:08:26.940Z,101945.13
2023-02-27T04:11:20.584Z,101953.91
2023-02-27T04:14:06.731Z,101968.59
2023-02-27T04:16:48.975Z,101976.47
2023-02-27T04:19:29.236Z,101981.63
2023-02-27T04:22:09.605Z,101985.94
2023-02-27T04:24:44.464Z,101986.72
2023-02-27T04:27:21.129Z,101998.97
2023-02-27T04:29:56.720Z,102020.84
2023-02-27T04:32:31.945Z,102041.94
2023-02-27T04:35:03.519Z,102005.13
2023-02-27T04:37:38.998Z,102011.06
2023-02-27T04:40:11.242Z,102025.06
2023-02-27T04:42:41.997Z,102026.75
2023-02-27T04:45:16.303Z,102042.47
2023-02-27T04:47:50.783Z,102056.53
2023-02-27T04:50:23.577Z,102042.34
2023-02-27T04:52:55.886Z,102063.28
2023-02-27T04:55:28.425Z,102058.88
2023-02-27T04:58:00.710Z,102033.31
2023-02-27T05:00:33.200Z,102069.13
2023-02-27T05:03:04.441Z,102051.38
2023-02-27T05:05:35.329Z,102064.34
2023-02-27T05:08:09.448Z,102059.88
2023-02-27T05:10:41.441Z,102040.59
2023-02-27T05:13:14.470Z,102048.34
2023-02-27T05:15:48.664Z,102048.34
2023-02-27T05:18:20.713Z,102043.94
2023-02-27T05:20:57.496Z,102053.38
2023-02-27T05:23:34.323Z,102057.91
2023-02-27T05:26:08.252Z,102072.78
2023-02-27T05:28:43.553Z,102083.28
2023-02-27T05:31:19.489Z,102091.25
2023-02-27T05:33:53.159Z,102082.38
2023-02-27T05:36:27.053Z,102098.22
2023-02-27T05:39:00.271Z,102121.91
2023-02-27T05:41:33.104Z,102103.56
2023-02-27T05:44:07.403Z,102106.16
2023-02-27T05:46:40.195Z,102105.97
2023-02-27T05:49:13.030Z,102116.47
2023-02-27T05:51:43.516Z,102093.59
2023-02-27T05:54:17.476Z,102117.06
2023-02-27T05:56:48.966Z,102133.66
2023-02-27T05:59:24.473Z,102150.38
2023-02-27T06:01:53.712Z,102181.09
2023-02-27T06:04:22.081Z,102199.72
2023-02-27T06:06:50.265Z,102221.91
2023-02-27T06:09:18.172Z,102217.06
2023-02-27T06:11:45.925Z,102227.91
2023-02-27T06:14:13.655Z,102208.03
2023-02-27T06:16:41.489Z,102196.03
2023-02-27T06:19:10.636Z,102214.66
2023-02-27T06:21:38.514Z,102192.97
2023-02-27T06:24:06.637Z,102197.78
2023-02-27T06:26:34.441Z,102164.63
2023-02-27T06:29:02.222Z,102146.38
2023-02-27T06:31:30.071Z,102136.81
2023-02-27T06:33:57.907Z,102113.22
2023-02-27T06:36:29.534Z,102122.84
2023-02-27T06:38:58.082Z,102107.97
2023-02-27T06:41:28.959Z,102103.56
2023-02-27T06:43:58.054Z,102110.78
2023-02-27T06:46:26.595Z,102119.69
2023-02-27T06:48:54.618Z,102113.03
2023-02-27T06:51:22.484Z,102153.22
2023-02-27T06:53:52.464Z,102171.81
2023-02-27T06:56:20.282Z,102154.59
2023-02-27T06:58:48.340Z,102145.22
2023-02-27T07:01:16.343Z,102128.38
2023-02-27T07:03:44.221Z,102095.50
2023-02-27T07:06:13.341Z,101918.94
2023-02-27T07:09:00.856Z,101588.00
2023-02-27T07:11:30.605Z,101427.41
2023-02-27T07:13:58.600Z,101362.34
2023-02-27T07:16:29.500Z,101368.25
2023-02-27T07:18:57.415Z,101393.25
2023-02-27T07:21:25.376Z,101476.75
2023-02-27T07:23:53.266Z,101685.97
2023-02-27T07:26:21.200Z,101671.06
2023-02-27T07:28:50.437Z,101682.19
2023-02-27T07:31:18.398Z,101711.75
2023-02-27T07:33:46.293Z,101742.31
2023-02-27T07:36:14.102Z,101844.72
2023-02-27T07:38:41.946Z,101825.28
2023-02-27T07:41:21.250Z,101918.22
2023-02-27T07:43:58.700Z,101871.69
2023-02-27T07:46:27.598Z,101908.25
2023-02-27T07:48:56.163Z,101936.19
2023-02-27T07:51:24.046Z,101983.50
2023-02-27T07:53:51.825Z,102007.34
2023-02-27T07:56:19.825Z,101972.06
2023-02-27T07:58:47.662Z,101990.50
2023-02-27T08:01:16.894Z,102055.28
2023-02-27T08:03:44.758Z,102085.34
2023-02-27T08:06:12.597Z,102067.69
2023-02-27T08:08:40.687Z,102077.34
2023-02-27T08:11:08.645Z,102104.56
2023-02-27T08:16:26.446Z,102152.50
2023-02-27T08:18:54.531Z,102137.72
2023-02-27T08:21:22.377Z,102158.94
2023-02-27T08:23:50.436Z,102196.09
2023-02-27T08:26:18.299Z,102155.84
2023-02-27T08:28:46.179Z,102155.84
2023-02-27T08:31:14.720Z,102110.28
2023-02-27T08:33:44.152Z,102147.28
2023-02-27T08:36:14.320Z,102112.06
2023-02-27T08:38:42.288Z,102148.13
2023-02-27T08:41:10.120Z,102155.31
2023-02-27T08:43:37.958Z,102140.44
2023-02-27T08:46:06.324Z,102171.22
2023-02-27T08:48:34.236Z,102138.56
2023-02-27T08:51:03.439Z,102168.47
2023-02-27T08:53:32.955Z,102168.63
2023-02-27T08:56:00.793Z,102144.00
2023-02-27T08:58:28.629Z,102175.69
2023-02-27T09:00:56.580Z,102223.38
2023-02-27T09:03:28.452Z,102235.94
2023-02-27T09:05:57.322Z,102201.97
2023-02-27T09:08:26.683Z,102146.00
2023-02-27T09:10:58.011Z,102125.94
2023-02-27T09:13:28.085Z,102058.31
2023-02-27T09:15:56.212Z,102080.22
2023-02-27T09:18:24.321Z,102048.63
2023-02-27T09:20:52.447Z,102050.47
2023-02-27T09:23:20.706Z,102058.44
2023-02-27T09:25:49.967Z,102098.16
2023-02-27T09:28:17.807Z,102038.44
2023-02-27T09:30:45.620Z,102078.19
2023-02-27T09:33:15.196Z,102033.50
2023-02-27T09:35:43.174Z,102019.47
2023-02-27T09:38:12.238Z,102069.66
2023-02-27T09:40:42.736Z,102098.81
2023-02-27T09:43:18.333Z,102016.25
2023-02-27T09:45:51.211Z,102025.16
2023-02-27T09:48:27.821Z,102024.25
2023-02-27T09:50:55.964Z,102075.50
2023-02-27T09:53:28.086Z,102069.53
2023-02-27T09:56:02.091Z,101994.06
2023-02-27T09:58:45.167Z,101980.94
2023-02-27T10:01:18.277Z,102007.44
2023-02-27T10:04:01.529Z,101982.88
2023-02-27T10:06:37.441Z,101998.78
2023-02-27T10:09:16.427Z,101990.03
2023-02-27T10:11:59.980Z,101959.28
2023-02-27T10:14:41.991Z,101916.16
2023-02-27T10:17:16.774Z,101857.25
2023-02-27T10:19:49.048Z,101863.41
2023-02-27T10:22:23.600Z,101832.59
2023-02-27T10:24:54.041Z,101717.41
2023-02-27T10:27:23.025Z,101840.50
2023-02-27T10:29:54.376Z,101897.66
2023-02-27T10:32:25.546Z,101775.28
2023-02-27T10:34:58.439Z,101759.47
2023-02-27T10:37:27.796Z,101658.25
2023-02-27T10:39:58.545Z,101728.53
2023-02-27T10:42:31.333Z,101724.94
2023-02-27T10:45:00.496Z,101616.91
2023-02-27T10:47:28.263Z,101663.66
2023-02-27T10:49:56.728Z,101796.47
2023-02-27T10:52:24.492Z,101814.94
2023-02-27T10:54:53.044Z,101750.75
2023-02-27T10:57:30.412Z,101791.22
2023-02-27T11:00:04.570Z,101842.19
2023-02-27T11:02:38.060Z,101678.56
2023-02-27T11:05:08.224Z,101724.25
2023-02-27T11:07:38.048Z,101634.50
2023-02-27T11:10:20.260Z,101733.81
2023-02-27T11:13:03.640Z,101661.44
2023-02-27T11:15:35.023Z,101627.91
2023-02-27T11:18:21.820Z,101519.34
2023-02-27T11:20:50.900Z,101551.84
2023-02-27T11:23:20.646Z,101436.22
2023-02-27T11:25:49.080Z,101343.25
2023-02-27T11:28:25.120Z,101387.28
2023-02-27T11:31:04.091Z,101450.44
2023-02-27T11:33:36.914Z,101520.31
2023-02-27T11:36:05.896Z,101354.25
2023-02-27T11:38:34.762Z,101317.78
2023-02-27T11:41:05.507Z,101261.91
2023-02-27T11:43:36.116Z,101069.53
2023-02-27T11:46:30.610Z,101141.84
2023-02-27T11:49:10.430Z,101017.38
2023-02-27T11:51:52.425Z,100981.19
2023-02-27T11:54:34.681Z,100951.91
2023-02-27T11:57:05.304Z,101070.78
2023-02-27T11:59:44.207Z,101124.19
2023-02-27T12:02:19.391Z,101022.22
2023-02-27T12:04:53.368Z,101032.13
2023-02-27T12:07:25.702Z,101134.88
2023-02-27T12:10:00.849Z,101192.47
2023-02-27T12:12:34.164Z,101058.25
2023-02-27T12:15:11.431Z,100927.25
2023-02-27T12:17:45.560Z,101014.28
2023-02-27T12:20:28.043Z,101010.94
2023-02-27T12:22:56.353Z,100726.16
2023-02-27T12:25:35.912Z,100787.75
2023-02-27T12:28:13.045Z,100877.19
2023-02-27T12:30:45.978Z,100787.72
2023-02-27T12:33:21.887Z,100488.31
2023-02-27T12:35:57.043Z,100511.13
2023-02-27T12:38:25.468Z,100363.41
2023-02-27T12:41:05.720Z,100640.69
2023-02-27T12:43:40.235Z,100492.34
2023-02-27T12:46:30.079Z,100340.81
2023-02-27T12:49:13.044Z,100326.78
2023-02-27T12:51:47.513Z,100193.28
2023-02-27T12:54:25.313Z,100347.34
2023-02-27T12:57:02.648Z,100367.75
2023-02-27T12:59:44.573Z,100445.50
2023-02-27T13:02:29.553Z,100528.22
2023-02-27T13:05:09.010Z,100678.50
2023-02-27T13:07:46.093Z,100681.03
2023-02-27T13:10:19.824Z,100708.59
2023-02-27T13:12:52.966Z,100621.84
2023-02-27T13:15:27.489Z,100536.84
2023-02-27T13:18:00.400Z,100483.81
2023-02-27T13:20:38.087Z,100287.03
2023-02-27T13:23:17.149Z,100335.25
2023-02-27T13:25:50.912Z,100383.22
2023-02-27T13:28:21.949Z,100441.06
2023-02-27T13:30:59.799Z,100446.25
2023-02-27T13:33:35.434Z,100350.09
2023-02-27T13:36:13.325Z,100509.56
2023-02-27T13:38:46.551Z,100534.81
2023-02-27T13:41:38.517Z,100597.44
2023-02-27T13:44:43.162Z,100451.84
2023-02-27T13:47:41.023Z,100594.25
2023-02-27T13:50:46.380Z,100550.34
2023-02-27T13:53:24.657Z,100491.69
2023-02-27T13:56:01.208Z,100335.19
2023-02-27T13:58:29.050Z,100315.22
2023-02-27T14:01:00.519Z,100448.84
2023-02-27T14:03:32.127Z,100481.41
2023-02-27T14:06:06.151Z,100416.34
2023-02-27T14:08:47.615Z,100638.84
2023-02-27T14:11:21.676Z,100668.91
2023-02-27T14:14:35.510Z,100631.50
2023-02-27T14:17:04.393Z,100615.91
2023-02-27T14:19:56.948Z,100563.88
2023-02-27T14:22:38.685Z,100649.69
2023-02-27T14:25:30.107Z,100626.38
2023-02-27T14:28:00.227Z,100763.66
2023-02-27T14:30:34.127Z,100722.34
2023-02-27T14:33:08.572Z,100778.69
2023-02-27T14:35:37.602Z,100730.41
2023-02-27T14:38:11.843Z,100855.59
2023-02-27T14:40:51.352Z,100834.34
2023-02-27T14:43:32.032Z,100748.09
2023-02-27T14:46:07.865Z,100672.59
2023-02-27T14:48:37.680Z,100689.59
2023-02-27T14:51:06.534Z,100699.28
2023-02-27T14:53:37.061Z,100711.66
2023-02-27T14:56:06.871Z,100785.75
2023-02-27T14:58:36.013Z,100798.19
2023-02-27T15:01:07.636Z,100821.16
2023-02-27T15:03:43.105Z,100732.97
2023-02-27T15:06:18.992Z,100763.91
2023-02-27T15:08:50.658Z,100790.53
2023-02-27T15:11:23.147Z,100686.81
2023-02-27T15:13:57.485Z,100698.56
2023-02-27T15:16:34.355Z,100703.88
2023-02-27T15:19:07.003Z,100725.06
2023-02-27T15:21:40.145Z,100715.34
2023-02-27T15:24:09.844Z,100741.78
2023-02-27T15:26:41.590Z,100748.06
2023-02-27T15:29:09.966Z,100813.06
2023-02-27T15:31:39.013Z,100768.09
2023-02-27T15:34:15.024Z,100809.34
2023-02-27T15:36:47.860Z,100753.53
2023-02-27T15:39:18.878Z,100761.34
2023-02-27T15:41:52.041Z,100760.53
2023-02-27T15:44:25.038Z,100753.47
2023-02-27T15:46:53.787Z,100797.63
2023-02-27T15:49:24.648Z,100794.22
2023-02-27T15:52:01.360Z,100827.75
2023-02-27T15:54:34.549Z,100766.31
2023-02-27T15:57:06.686Z,100740.13
2023-02-27T15:59:40.208Z,100762.25
2023-02-27T16:02:16.813Z,100753.50
2023-02-27T16:04:47.566Z,100786.81
2023-02-27T16:07:20.262Z,100831.72
2023-02-27T16:09:51.831Z,100844.09
2023-02-27T16:12:29.999Z,100906.72
2023-02-27T16:15:30.080Z,100980.81
2023-02-27T16:18:22.591Z,100950.31
2023-02-27T16:20:54.907Z,100903.03
2023-02-27T16:23:25.350Z,100902.16
2023-02-27T16:26:16.563Z,100977.03
2023-02-27T16:28:51.651Z,101035.19
2023-02-27T16:31:31.395Z,101085.38
2023-02-27T16:34:01.245Z,101152.34
2023-02-27T16:36:31.097Z,101185.84
2023-02-27T16:38:59.025Z,101280.94
2023-02-27T16:41:26.946Z,101303.91
2023-02-27T16:43:56.330Z,101223.09
2023-02-27T16:46:24.166Z,101239.88
2023-02-27T16:48:54.297Z,101234.63
2023-02-27T16:51:24.875Z,101268.97
2023-02-27T16:53:54.127Z,101306.06
2023-02-27T16:56:37.072Z,101344.88
2023-02-27T16:59:07.116Z,101374.81
2023-02-27T17:01:34.978Z,101371.34
2023-02-27T17:04:05.260Z,101396.81
2023-02-27T17:06:38.064Z,101401.22
2023-02-27T17:09:05.876Z,101425.84
2023-02-27T17:11:33.749Z,101442.50
2023-02-27T17:14:01.885Z,101459.22
2023-02-27T17:16:31.215Z,101491.72
2023-02-27T17:18:59.123Z,101517.22
2023-02-27T17:21:27.542Z,101539.16
2023-02-27T17:23:55.368Z,101577.78
2023-02-27T17:26:23.259Z,101606.75
2023-02-27T17:28:51.112Z,101667.31
2023-02-27T17:31:22.823Z,101663.78
2023-02-27T17:33:53.564Z,101638.34
2023-02-27T17:36:23.211Z,101655.84
2023-02-27T17:38:55.743Z,101664.66
2023-02-27T17:41:24.165Z,101658.47
2023-02-27T17:43:52.634Z,101691.81
2023-02-27T17:46:20.491Z,101724.25
2023-02-27T17:48:48.262Z,101761.09
2023-02-27T17:51:19.169Z,101797.06
2023-02-27T17:53:47.261Z,101805.78
2023-02-27T17:56:15.622Z,101807.50
2023-02-27T17:58:45.326Z,101820.63
2023-02-27T18:01:17.037Z,101819.66
2023-02-27T18:03:45.040Z,101810.84
2023-02-27T18:06:12.867Z,101817.81
2023-02-27T18:08:42.165Z,101799.38
2023-02-27T18:11:10.708Z,101778.28
2023-02-27T18:13:39.943Z,101759.84
2023-02-27T18:16:08.429Z,101772.91
2023-02-27T18:18:37.098Z,101767.56
2023-02-27T18:21:07.460Z,101763.06
2023-02-27T18:23:35.491Z,101749.00
2023-02-27T18:26:07.085Z,101732.22
2023-02-27T18:28:35.490Z,101727.78
2023-02-27T18:31:03.322Z,101718.09
2023-02-27T18:33:31.150Z,101707.47
2023-02-27T18:35:58.917Z,101744.25
2023-02-27T18:38:26.629Z,101770.47
2023-02-27T18:40:54.487Z,101800.16
2023-02-27T18:43:23.549Z,101835.13
2023-02-27T18:45:51.498Z,101837.66
2023-02-27T18:48:19.302Z,101836.72
2023-02-27T18:50:47.098Z,101848.09
2023-02-27T18:53:14.883Z,101854.25
2023-02-27T18:55:42.709Z,101899.84
2023-02-27T18:58:10.510Z,101937.47
2023-02-27T19:00:42.056Z,101958.41
2023-02-27T19:03:09.963Z,101965.34
2023-02-27T19:05:41.368Z,101980.19
2023-02-27T19:08:11.025Z,101951.16
2023-02-27T19:10:39.631Z,101922.19
2023-02-27T19:13:09.327Z,101944.03
2023-02-27T19:15:37.417Z,101953.66
2023-02-27T19:18:07.503Z,101949.22
2023-02-27T19:20:35.797Z,101929.84
2023-02-27T19:23:03.611Z,101946.44
2023-02-27T19:25:32.072Z,101973.50
2023-02-27T19:28:00.932Z,102016.34
2023-02-27T19:30:28.794Z,102035.47
2023-02-27T19:32:58.013Z,102035.22
2023-02-27T19:35:27.246Z,102037.63
2023-02-27T19:37:58.090Z,102061.13
2023-02-27T19:40:26.551Z,102089.06
2023-02-27T19:42:54.298Z,102085.47
2023-02-27T19:45:22.028Z,102116.94
2023-02-27T19:47:49.860Z,102146.63
2023-02-27T19:50:18.290Z,102137.69
2023-02-27T19:52:47.378Z,102153.31
2023-02-27T19:55:15.152Z,102174.22
2023-02-27T19:57:42.904Z,102221.44
2023-02-27T20:00:13.135Z,102229.25
2023-02-27T20:02:41.833Z,102235.22
2023-02-27T20:05:12.117Z,102237.69
2023-02-27T20:07:42.341Z,102260.28
2023-02-27T20:10:15.093Z,102271.50
2023-02-27T20:12:43.597Z,102263.31
2023-02-27T20:15:12.752Z,102278.00
2023-02-27T20:17:42.011Z,102295.28
2023-02-27T20:20:11.010Z,102317.09
2023-02-27T20:22:39.187Z,102326.66
2023-02-27T20:25:07.618Z,102347.66
2023-02-27T20:27:36.834Z,102362.69
2023-02-27T20:30:05.338Z,102360.00
2023-02-27T20:32:33.134Z,102351.16
2023-02-27T20:35:00.932Z,102343.97
2023-02-27T20:37:31.958Z,102328.09
2023-02-27T20:39:59.869Z,102319.22
2023-02-27T20:42:27.643Z,102299.78
2023-02-27T20:44:57.050Z,102290.97
2023-02-27T20:47:24.782Z,102295.31
2023-02-27T20:49:52.571Z,102305.84
2023-02-27T20:52:20.334Z,102320.69
2023-02-27T20:54:48.124Z,102325.84
2023-02-27T20:57:15.893Z,102344.97
2023-02-27T20:59:43.585Z,102369.47
2023-02-27T21:02:13.028Z,102380.81
2023-02-27T21:04:43.939Z,102402.63
2023-02-27T21:07:13.005Z,102411.34
2023-02-27T21:09:41.209Z,102393.66
2023-02-27T21:12:09.781Z,102403.22
2023-02-27T21:14:38.287Z,102396.94
2023-02-27T21:17:06.580Z,102405.66
2023-02-27T21:19:36.501Z,102424.91
2023-02-27T21:22:04.441Z,102423.97
2023-02-27T21:24:32.515Z,102423.84
2023-02-27T21:27:00.644Z,102434.16
2023-02-27T21:29:28.570Z,102432.44
2023-02-27T21:31:56.472Z,102433.22
2023-02-27T21:34:27.746Z,102447.03
2023-02-27T21:36:57.272Z,102447.00
2023-02-27T21:39:28.147Z,102435.44
2023-02-27T21:41:56.062Z,102442.34
2023-02-27T21:44:25.356Z,102458.16
2023-02-27T21:46:54.279Z,102470.44
2023-02-27T21:49:24.135Z,102488.16
2023-02-27T21:51:52.356Z,102452.06
2023-02-27T21:54:22.086Z,102459.09
2023-02-27T21:56:50.474Z,102462.59
2023-02-27T21:59:20.157Z,102434.41
2023-02-27T22:01:48.717Z,102418.53
2023-02-27T22:04:17.518Z,102442.19
2023-02-27T22:06:45.699Z,102406.16
2023-02-27T22:09:13.994Z,102438.50
2023-02-27T22:11:43.696Z,102461.44
2023-02-27T22:14:12.803Z,102452.66
2023-02-27T22:16:41.365Z,102440.28
2023-02-27T22:19:10.831Z,102430.47
2023-02-27T22:21:39.425Z,102454.16
2023-02-27T22:24:08.435Z,102472.50
2023-02-27T22:26:36.798Z,102477.06
2023-02-27T22:29:07.076Z,102464.63
2023-02-27T22:31:37.407Z,102434.72
2023-02-27T22:34:08.283Z,102445.03
2023-02-27T22:36:36.858Z,102458.09
2023-02-27T22:39:05.649Z,102477.34
2023-02-27T22:41:34.873Z,102469.28
2023-02-27T22:44:05.312Z,102478.13
2023-02-27T22:46:34.678Z,102493.03
2023-02-27T22:49:04.853Z,102503.56
2023-02-27T22:51:32.858Z,102500.94
2023-02-27T22:54:03.112Z,102521.31
2023-02-27T22:56:32.030Z,102520.38
2023-02-27T22:59:00.443Z,102497.53
2023-02-27T23:01:31.587Z,102490.47
2023-02-27T23:04:01.419Z,102496.59
2023-02-27T23:06:32.065Z,102506.25
2023-02-27T23:09:00.450Z,102512.47
2023-02-27T23:11:28.679Z,102500.19
2023-02-27T23:13:57.013Z,102516.00
2023-02-27T23:16:24.924Z,102536.34
2023-02-27T23:18:56.835Z,102535.50
2023-02-27T23:21:26.843Z,102540.06
2023-02-27T23:23:54.963Z,102529.63
2023-02-27T23:26:22.947Z,102514.78
2023-02-27T23:28:52.073Z,102515.72
2023-02-27T23:31:20.031Z,102507.88
2023-02-27T23:33:47.928Z,102487.63
2023-02-27T23:36:17.645Z,102482.34
2023-02-27T23:38:46.591Z,102502.50
2023-02-27T23:41:17.383Z,102514.97
2023-02-27T23:43:46.034Z,102506.06
2023-02-27T23:46:16.469Z,102513.19
2023-02-27T23:48:44.642Z,102523.72
2023-02-27T23:51:13.090Z,102518.41
2023-02-27T23:53:43.343Z,102504.19
2023-02-27T23:56:16.154Z,102506.88
2023-02-27T23:58:44.160Z,102502.38
